Terminal Aerodrome Forecast
Issued by NWS Greer, SC

Home | Current Version | Previous Version | Text Only | Print | Product List | Glossary On
Versions: 1 2 3 4 5 6 7 8 9 10 11 12 13 14 15 16 17 18 19 20 21 22 23 24 25 26 27 28 29 30 31 32 33 34 35 36
000
FTUS42 KGSP 230500
TAFAVL
TAF
KAVL 230536Z 2306/2406 VRB03KT P6SM FEW060 SCT120 BKN250
     FM230800 35003KT P6SM VCSH SCT040 BKN100
      TEMPO 2309/2313 5SM BR BKN040
     FM231300 34006KT P6SM SCT040
     FM231800 33005KT P6SM VCSH BKN045 PROB30 2321/2403 4SM TSRA
      BKN040CB=

USA.gov is the U.S. government's official web portal to all federal, state and local government web resources and services.